createdAt,value
2023-11-13T00:00:37.003Z,1125.00
2023-11-13T00:03:04.756Z,2004.84
2023-11-13T00:05:34.046Z,1944.70
2023-11-13T00:08:01.716Z,1001.69
2023-11-13T00:10:29.654Z,755.71
2023-11-13T00:12:57.384Z,1303.47
2023-11-13T00:15:25.042Z,1070.51
2023-11-13T00:17:52.760Z,1676.17
2023-11-13T00:20:20.853Z,1801.28
2023-11-13T00:22:50.104Z,1617.72
2023-11-13T00:25:17.888Z,2683.86
2023-11-13T00:27:45.624Z,2818.12
2023-11-13T00:30:13.759Z,2725.74
2023-11-13T00:32:41.483Z,1796.02
2023-11-13T00:35:09.429Z,1211.94
2023-11-13T00:37:37.127Z,891.74
2023-11-13T00:40:07.733Z,1494.07
2023-11-13T00:42:35.393Z,897.17
2023-11-13T00:45:03.384Z,1406.88
2023-11-13T00:47:31.095Z,1915.20
2023-11-13T00:49:58.799Z,1404.78
2023-11-13T00:52:26.462Z,1925.78
2023-11-13T00:54:54.176Z,1216.47
2023-11-13T00:57:23.209Z,1801.88
2023-11-13T00:59:50.892Z,2424.32
2023-11-13T01:02:18.624Z,2401.43
2023-11-13T01:04:46.285Z,2100.95
2023-11-13T01:07:14.008Z,3885.88
2023-11-13T01:09:41.678Z,2531.90
2023-11-13T01:12:09.985Z,2052.91
2023-11-13T01:14:39.157Z,2297.71
2023-11-13T01:17:06.909Z,1505.86
2023-11-13T01:19:34.716Z,3590.22
2023-11-13T01:22:02.490Z,1109.10
2023-11-13T01:24:30.196Z,2204.08
2023-11-13T01:26:57.919Z,1345.92
2023-11-13T01:29:25.573Z,5901.32
2023-11-13T01:31:54.588Z,3053.04
2023-11-13T01:34:22.374Z,1781.52
2023-11-13T01:36:50.064Z,806.96
2023-11-13T01:39:17.738Z,715.07
2023-11-13T01:41:45.369Z,374.17
2023-11-13T01:44:12.992Z,283.22
2023-11-13T01:46:40.810Z,292.70
2023-11-13T01:49:11.572Z,303.48
2023-11-13T01:51:39.436Z,332.94
2023-11-13T01:54:07.352Z,362.62
2023-11-13T01:56:36.428Z,326.08
2023-11-13T01:59:04.709Z,240.19
2023-11-13T02:01:32.868Z,274.52
2023-11-13T02:04:00.636Z,324.99
2023-11-13T02:06:29.674Z,257.73
2023-11-13T02:08:57.303Z,752.78
2023-11-13T02:11:26.483Z,918.41
2023-11-13T02:13:54.726Z,1713.62
2023-11-13T02:16:22.460Z,1661.49
2023-11-13T02:18:50.152Z,1467.46
2023-11-13T02:21:17.800Z,1060.68
2023-11-13T02:23:47.839Z,2012.28
2023-11-13T02:26:16.052Z,1911.61
2023-11-13T02:28:44.698Z,2626.91
2023-11-13T02:31:12.582Z,3253.22
2023-11-13T02:33:40.421Z,3815.31
2023-11-13T02:36:08.740Z,3476.68
2023-11-13T02:38:36.560Z,4191.79
2023-11-13T02:41:05.650Z,2775.72
2023-11-13T02:43:33.323Z,2362.62
2023-11-13T02:46:01.064Z,2580.46
2023-11-13T02:48:28.897Z,3296.35
2023-11-13T02:50:56.577Z,3508.23
2023-11-13T02:53:24.238Z,1752.82
2023-11-13T02:55:51.975Z,2556.54
2023-11-13T02:58:21.025Z,618.29
2023-11-13T03:00:48.830Z,2599.83
2023-11-13T03:03:16.706Z,2996.49
2023-11-13T03:05:44.423Z,2519.02
2023-11-13T03:08:12.230Z,3335.13
2023-11-13T03:10:40.010Z,2128.11
2023-11-13T03:13:07.761Z,3484.92
2023-11-13T03:15:36.851Z,4269.43
2023-11-13T03:18:04.968Z,4252.00
2023-11-13T03:20:32.688Z,2484.74
2023-11-13T03:23:00.353Z,3604.27
2023-11-13T03:25:28.096Z,4694.29
2023-11-13T03:27:55.844Z,5275.15
2023-11-13T03:30:24.140Z,4879.09
2023-11-13T03:32:53.348Z,5066.43
2023-11-13T03:35:21.146Z,3228.84
2023-11-13T03:37:48.789Z,3896.15
2023-11-13T03:40:16.564Z,4675.08
2023-11-13T03:42:44.272Z,4040.38
2023-11-13T03:45:11.933Z,3223.55
2023-11-13T03:47:39.733Z,4926.60
2023-11-13T03:50:09.389Z,4740.04
2023-11-13T03:52:37.105Z,4050.08
2023-11-13T03:55:05.493Z,4068.11
2023-11-13T03:57:33.177Z,3493.70
2023-11-13T04:00:00.822Z,3786.36
2023-11-13T04:02:28.482Z,3144.10
2023-11-13T04:04:56.131Z,1129.24
2023-11-13T04:07:25.171Z,2491.40
2023-11-13T04:09:52.903Z,3098.36
2023-11-13T04:12:20.656Z,3289.34
2023-11-13T04:14:48.334Z,3314.62
2023-11-13T04:17:16.355Z,2961.95
2023-11-13T04:19:44.038Z,1991.79
2023-11-13T04:22:11.822Z,3781.51
2023-11-13T04:24:41.035Z,1936.37
2023-11-13T04:27:08.706Z,3985.71
2023-11-13T04:29:36.386Z,2230.96
2023-11-13T04:32:04.651Z,3813.41
2023-11-13T04:34:32.434Z,4018.62
2023-11-13T04:37:00.137Z,4613.73
2023-11-13T04:39:27.878Z,3576.90
2023-11-13T04:41:56.925Z,4001.32
2023-11-13T04:44:24.565Z,4273.10
2023-11-13T04:46:52.326Z,5606.12
2023-11-13T04:49:20.152Z,2472.57
2023-11-13T04:51:47.845Z,2484.73
2023-11-13T04:54:15.627Z,3943.01
2023-11-13T04:56:43.481Z,2628.77
2023-11-13T04:59:12.565Z,3128.00
2023-11-13T05:01:40.273Z,2947.58
2023-11-13T05:04:08.146Z,1922.68
2023-11-13T05:06:36.377Z,1801.43
2023-11-13T05:09:04.318Z,970.90
2023-11-13T05:11:32.046Z,2192.63
2023-11-13T05:13:59.689Z,2190.52
2023-11-13T05:16:29.501Z,2239.51
2023-11-13T05:18:57.352Z,1188.67
2023-11-13T05:21:25.251Z,4270.15
2023-11-13T05:23:52.950Z,1437.44
2023-11-13T05:26:20.709Z,1586.70
2023-11-13T05:28:48.532Z,1648.70
2023-11-13T05:31:16.622Z,1755.90
2023-11-13T05:33:45.720Z,1761.04
2023-11-13T05:36:13.518Z,1763.34
2023-11-13T05:38:42.032Z,3248.52
2023-11-13T05:41:09.858Z,1868.05
2023-11-13T05:43:37.576Z,1410.27
2023-11-13T05:46:05.895Z,2444.01
2023-11-13T05:48:33.627Z,1360.26
2023-11-13T05:51:02.926Z,1894.25
2023-11-13T05:53:30.642Z,2186.96
2023-11-13T05:55:58.378Z,1231.82
2023-11-13T05:58:26.070Z,546.55
2023-11-13T06:00:53.788Z,1744.98
2023-11-13T06:03:21.457Z,2458.44
2023-11-13T06:05:49.117Z,3582.55
2023-11-13T06:08:18.172Z,3245.18
2023-11-13T06:10:45.846Z,1744.09
2023-11-13T06:13:13.572Z,2620.48
2023-11-13T06:15:41.258Z,1545.63
2023-11-13T06:18:09.068Z,1308.14
2023-11-13T06:20:37.025Z,1717.95
2023-11-13T06:23:04.765Z,668.08
2023-11-13T06:25:33.884Z,1877.35
2023-11-13T06:28:01.798Z,624.12
2023-11-13T06:30:29.482Z,830.24
2023-11-13T06:32:57.274Z,737.54
2023-11-13T06:35:25.065Z,1508.21
2023-11-13T06:37:52.731Z,1330.32
2023-11-13T06:40:20.404Z,1179.19
2023-11-13T06:42:49.502Z,2919.54
2023-11-13T06:45:17.389Z,2225.22
2023-11-13T06:47:45.154Z,1367.96
2023-11-13T06:50:12.845Z,1338.72
2023-11-13T06:52:41.577Z,2117.65
2023-11-13T06:55:09.677Z,1708.46
2023-11-13T06:57:37.338Z,2338.84
2023-11-13T07:00:08.018Z,2708.41
2023-11-13T07:02:36.576Z,2332.13
2023-11-13T07:05:06.405Z,3041.71
2023-11-13T07:07:35.453Z,2398.35
2023-11-13T07:10:03.609Z,2545.42
2023-11-13T07:12:33.941Z,1514.55
2023-11-13T07:15:03.290Z,1348.62
2023-11-13T07:17:32.399Z,1981.65
2023-11-13T07:20:00.505Z,2789.70
2023-11-13T07:22:28.225Z,2967.90
2023-11-13T07:24:56.192Z,4014.31
2023-11-13T07:27:23.905Z,4738.94
2023-11-13T07:29:51.614Z,3858.84
2023-11-13T07:32:19.325Z,3434.56
2023-11-13T07:34:48.500Z,2601.87
2023-11-13T07:37:16.217Z,2764.94
2023-11-13T07:39:44.214Z,2784.02
2023-11-13T07:42:11.872Z,1481.13
2023-11-13T07:44:40.226Z,1636.49
2023-11-13T07:47:07.984Z,2287.11
2023-11-13T07:49:35.740Z,1205.42
2023-11-13T07:52:05.444Z,3020.57
2023-11-13T07:54:33.117Z,3195.19
2023-11-13T07:57:00.805Z,2842.32
2023-11-13T07:59:28.460Z,3558.75
2023-11-13T08:01:56.269Z,1901.14
2023-11-13T08:04:24.074Z,2904.73
2023-11-13T08:06:51.843Z,2980.93
2023-11-13T08:09:20.975Z,3667.29
2023-11-13T08:11:49.028Z,2694.81
2023-11-13T08:14:16.809Z,3047.64
2023-11-13T08:16:45.643Z,1257.78
2023-11-13T08:19:13.379Z,2114.94
2023-11-13T08:21:41.090Z,2909.35
2023-11-13T08:24:09.346Z,2229.35
2023-11-13T08:26:38.466Z,2527.74
2023-11-13T08:29:06.146Z,3440.16
2023-11-13T08:31:33.883Z,4512.59
2023-11-13T08:34:01.607Z,3054.31
2023-11-13T08:36:29.418Z,1977.65
2023-11-13T08:38:57.168Z,2225.25
2023-11-13T08:41:24.880Z,2105.81
2023-11-13T08:43:53.899Z,1383.90
2023-11-13T08:46:21.718Z,1176.49
2023-11-13T08:48:49.403Z,1411.11
2023-11-13T08:51:17.090Z,1559.27
2023-11-13T08:53:44.757Z,1399.20
2023-11-13T08:56:12.546Z,1365.51
2023-11-13T08:58:40.228Z,1808.62
2023-11-13T09:01:09.341Z,1856.19
2023-11-13T09:03:37.155Z,1614.50
2023-11-13T09:06:05.897Z,947.87
2023-11-13T09:08:33.553Z,954.92
2023-11-13T09:11:01.235Z,2489.03
2023-11-13T09:13:28.951Z,1647.49
2023-11-13T09:15:56.680Z,1504.36
2023-11-13T09:18:25.711Z,1734.07
2023-11-13T09:20:53.578Z,2352.68
2023-11-13T09:23:21.271Z,3185.47
2023-11-13T09:25:48.975Z,3223.04
2023-11-13T09:28:17.046Z,2378.58
2023-11-13T09:30:44.750Z,2889.12
2023-11-13T09:33:12.580Z,3616.90
2023-11-13T09:35:41.640Z,3099.84
2023-11-13T09:38:09.379Z,4788.55
2023-11-13T09:40:37.100Z,5895.19
2023-11-13T09:43:10.857Z,4494.31
2023-11-13T09:45:43.680Z,6729.90
2023-11-13T09:48:15.524Z,5338.37
2023-11-13T09:50:44.582Z,6763.89
2023-11-13T09:53:14.234Z,4849.27
2023-11-13T09:55:43.090Z,3668.62
2023-11-13T09:58:12.307Z,4222.96
2023-11-13T10:00:40.865Z,2867.36
2023-11-13T10:03:09.113Z,2572.07
2023-11-13T10:05:40.183Z,2104.42
2023-11-13T10:08:09.297Z,2148.90
2023-11-13T10:10:37.081Z,2686.16
2023-11-13T10:13:04.772Z,2333.27
2023-11-13T10:15:33.695Z,1666.19
2023-11-13T10:18:02.233Z,1638.80
2023-11-13T10:20:30.145Z,1485.61
2023-11-13T10:22:59.741Z,1196.84
2023-11-13T10:25:41.370Z,1213.84
2023-11-13T10:28:09.078Z,1187.13
2023-11-13T10:30:54.676Z,1601.05
2023-11-13T10:33:22.620Z,1592.39
2023-11-13T10:35:50.649Z,2697.78
2023-11-13T10:38:19.561Z,2492.51
2023-11-13T10:40:56.304Z,2189.39
2023-11-13T10:43:31.981Z,2358.41
2023-11-13T10:46:00.929Z,2366.46
2023-11-13T10:48:33.095Z,2433.30
2023-11-13T10:51:02.118Z,2761.82
2023-11-13T10:53:30.962Z,2343.72
2023-11-13T10:56:01.293Z,2214.31
2023-11-13T10:58:29.121Z,1851.31
2023-11-13T11:01:00.312Z,1858.73
2023-11-13T11:03:29.588Z,2292.89
2023-11-13T11:06:00.759Z,2652.10
2023-11-13T11:08:31.336Z,1747.97
2023-11-13T11:11:03.745Z,2307.17
2023-11-13T11:13:36.016Z,3734.31
2023-11-13T11:16:27.008Z,3014.04
2023-11-13T11:19:04.890Z,4683.72
2023-11-13T11:21:41.950Z,3864.49
2023-11-13T11:24:21.477Z,3240.61
2023-11-13T11:26:55.129Z,3214.70
2023-11-13T11:29:34.374Z,3523.45
2023-11-13T11:32:08.412Z,3451.22
2023-11-13T11:34:39.449Z,2880.98
2023-11-13T11:37:11.471Z,2365.74
2023-11-13T11:39:46.687Z,2400.20
2023-11-13T11:42:20.895Z,2083.95
2023-11-13T11:45:00.094Z,1791.42
2023-11-13T11:47:28.210Z,1564.47
2023-11-13T11:49:57.529Z,2385.86
2023-11-13T11:52:46.107Z,3178.96
2023-11-13T11:55:14.101Z,2521.39
2023-11-13T11:57:47.323Z,3007.03
2023-11-13T12:00:18.247Z,3435.83
2023-11-13T12:02:46.494Z,2553.70
2023-11-13T12:05:14.639Z,3372.02
2023-11-13T12:07:42.482Z,4222.06
2023-11-13T12:10:11.402Z,3219.76
2023-11-13T12:12:40.326Z,2327.53
2023-11-13T12:15:11.042Z,3895.21
2023-11-13T12:17:40.497Z,3695.48
2023-11-13T12:20:19.715Z,4509.59
2023-11-13T12:22:50.955Z,3802.28
2023-11-13T12:25:19.185Z,3174.86
2023-11-13T12:27:47.361Z,3170.68
2023-11-13T12:30:16.654Z,4061.04
2023-11-13T12:32:45.529Z,3549.31
2023-11-13T12:35:14.038Z,3082.76
2023-11-13T12:37:42.610Z,2887.14
2023-11-13T12:40:11.828Z,3092.23
2023-11-13T12:42:40.121Z,4017.84
2023-11-13T12:45:12.072Z,4483.73
2023-11-13T12:47:46.367Z,3550.70
2023-11-13T12:50:15.230Z,3865.47
2023-11-13T12:52:44.166Z,3530.72
2023-11-13T12:55:15.477Z,3340.63
2023-11-13T12:57:43.704Z,2867.42
2023-11-13T13:00:12.974Z,3019.06
2023-11-13T13:02:40.696Z,3053.83
2023-11-13T13:05:22.795Z,3286.02
2023-11-13T13:07:57.279Z,3497.92
2023-11-13T13:10:25.117Z,6227.22
2023-11-13T13:12:53.173Z,5810.96
2023-11-13T13:15:20.918Z,2778.89
2023-11-13T13:17:49.023Z,6292.63
2023-11-13T13:20:19.514Z,5389.98
2023-11-13T13:22:49.144Z,5295.56
2023-11-13T13:25:16.877Z,3578.03
2023-11-13T13:27:44.844Z,3276.23
2023-11-13T13:30:13.965Z,1633.39
2023-11-13T13:32:41.981Z,2664.84
2023-11-13T13:35:10.377Z,5380.24
2023-11-13T13:37:39.800Z,4692.43
2023-11-13T13:40:09.066Z,4239.06
2023-11-13T13:42:37.101Z,2439.85
2023-11-13T13:45:05.720Z,2513.86
2023-11-13T13:47:33.408Z,6155.09
2023-11-13T13:50:01.121Z,4974.01
2023-11-13T13:52:28.811Z,6689.82
2023-11-13T13:54:59.049Z,4878.82
2023-11-13T13:57:26.712Z,2635.95
2023-11-13T13:59:54.344Z,1910.22
2023-11-13T14:02:21.991Z,1359.57
2023-11-13T14:04:50.234Z,2083.54
2023-11-13T14:07:17.907Z,2297.38
2023-11-13T14:09:45.599Z,3038.60
2023-11-13T14:12:21.150Z,3716.16
2023-11-13T14:14:49.818Z,3364.29
2023-11-13T14:17:17.571Z,4301.32
2023-11-13T14:19:45.313Z,5425.33
2023-11-13T14:22:13.089Z,5655.33
2023-11-13T14:24:40.833Z,4447.99
2023-11-13T14:27:08.570Z,5247.36
2023-11-13T14:29:37.592Z,6757.64
2023-11-13T14:32:06.168Z,6248.61
2023-11-13T14:34:33.844Z,5556.12
2023-11-13T14:37:02.615Z,3013.92
2023-11-13T14:39:30.628Z,2740.16
2023-11-13T14:41:58.323Z,5272.25
2023-11-13T14:44:26.008Z,2992.17
2023-11-13T14:46:55.075Z,3186.20
2023-11-13T14:49:22.777Z,3624.88
2023-11-13T14:51:50.499Z,3242.44
2023-11-13T14:54:18.170Z,2108.55
2023-11-13T14:56:45.821Z,4337.99
2023-11-13T14:59:13.478Z,3329.46
2023-11-13T15:01:41.247Z,2440.77
2023-11-13T15:04:10.361Z,3268.82
2023-11-13T15:06:38.099Z,2711.35
2023-11-13T15:09:05.881Z,1922.63
2023-11-13T15:11:33.584Z,2526.22
2023-11-13T15:14:01.231Z,2240.30
2023-11-13T15:16:28.955Z,3195.02
2023-11-13T15:18:56.724Z,1796.34
2023-11-13T15:21:25.773Z,2143.06
2023-11-13T15:23:53.567Z,2093.34
2023-11-13T15:26:21.276Z,3234.62
2023-11-13T15:28:49.041Z,1762.25
2023-11-13T15:31:16.903Z,5361.47
2023-11-13T15:33:44.713Z,4315.73
2023-11-13T15:36:12.443Z,6191.61
2023-11-13T15:38:41.712Z,4052.22
2023-11-13T15:41:09.401Z,6421.79
2023-11-13T15:43:37.126Z,5296.15
2023-11-13T15:46:05.649Z,5813.80
2023-11-13T15:48:33.336Z,3638.84
2023-11-13T15:51:01.023Z,3395.47
2023-11-13T15:53:28.868Z,3425.09
2023-11-13T15:55:57.869Z,2364.04
2023-11-13T15:58:25.576Z,3051.79
2023-11-13T16:00:53.331Z,2495.60
2023-11-13T16:03:22.708Z,4220.76
2023-11-13T16:05:53.893Z,3769.66
2023-11-13T16:08:21.560Z,4194.34
2023-11-13T16:10:49.275Z,5827.53
2023-11-13T16:13:18.335Z,4751.86
2023-11-13T16:15:46.056Z,5163.05
2023-11-13T16:18:13.976Z,6233.33
2023-11-13T16:20:41.769Z,4144.13
2023-11-13T16:23:09.628Z,4397.15
2023-11-13T16:25:37.332Z,3088.76
2023-11-13T16:28:05.400Z,1556.45
2023-11-13T16:30:34.500Z,3480.10
2023-11-13T16:33:02.418Z,2985.01
2023-11-13T16:35:30.271Z,1656.66
2023-11-13T16:37:57.916Z,2559.86
2023-11-13T16:40:25.612Z,1988.59
2023-11-13T16:42:53.277Z,2898.80
2023-11-13T16:45:20.942Z,2577.30
2023-11-13T16:47:49.950Z,4001.43
2023-11-13T16:50:17.718Z,3714.78
2023-11-13T16:52:45.466Z,4914.70
2023-11-13T16:55:13.291Z,4852.00
2023-11-13T16:57:41.021Z,6002.90
2023-11-13T17:00:09.598Z,5733.10
2023-11-13T17:02:37.401Z,4818.43
2023-11-13T17:05:07.074Z,4399.46
2023-11-13T17:07:34.750Z,3567.86
2023-11-13T17:10:02.543Z,4279.67
2023-11-13T17:12:30.204Z,3843.64
2023-11-13T17:14:57.840Z,4333.06
2023-11-13T17:17:25.558Z,4604.33
2023-11-13T17:19:53.341Z,5051.71
2023-11-13T17:22:22.486Z,3786.24
2023-11-13T17:24:50.236Z,3169.15
2023-11-13T17:27:17.929Z,4377.98
2023-11-13T17:29:45.600Z,4539.42
2023-11-13T17:32:13.358Z,3866.98
2023-11-13T17:34:41.128Z,5343.36
2023-11-13T17:37:09.059Z,4707.80
2023-11-13T17:39:38.076Z,5467.35
2023-11-13T17:42:05.966Z,5712.07
2023-11-13T17:44:33.713Z,3901.06
2023-11-13T17:47:01.485Z,4060.37
2023-11-13T17:49:29.218Z,3538.25
2023-11-13T17:51:56.902Z,4162.98
2023-11-13T17:54:24.699Z,3877.52
2023-11-13T17:56:53.715Z,3632.18
2023-11-13T17:59:21.415Z,3944.00
2023-11-13T18:01:50.572Z,4272.80
2023-11-13T18:04:18.337Z,3587.96
2023-11-13T18:06:46.083Z,3996.17
2023-11-13T18:09:13.761Z,4708.79
2023-11-13T18:11:42.875Z,4718.00
2023-11-13T18:14:11.928Z,4738.53
2023-11-13T18:16:39.680Z,3458.51
2023-11-13T18:19:07.389Z,3369.76
2023-11-13T18:21:35.100Z,2760.14
2023-11-13T18:24:02.813Z,5318.38
2023-11-13T18:26:30.467Z,4674.62
2023-11-13T18:28:58.173Z,3409.48
2023-11-13T18:31:28.428Z,2347.76
2023-11-13T18:33:56.280Z,4514.63
2023-11-13T18:36:24.181Z,4451.81
2023-11-13T18:38:53.139Z,3105.98
2023-11-13T18:41:20.795Z,3651.89
2023-11-13T18:43:48.730Z,6427.35
2023-11-13T18:46:16.518Z,2864.84
2023-11-13T18:48:45.551Z,2402.08
2023-11-13T18:51:13.257Z,3441.17
2023-11-13T18:53:40.951Z,2782.55
2023-11-13T18:56:09.215Z,2503.99
2023-11-13T18:58:36.907Z,4333.16
2023-11-13T19:01:04.980Z,4338.11
2023-11-13T19:03:32.781Z,4274.79
2023-11-13T19:06:01.886Z,3791.88
2023-11-13T19:08:29.598Z,3982.59
2023-11-13T19:10:57.331Z,4062.35
2023-11-13T19:13:25.523Z,3506.13
2023-11-13T19:15:53.241Z,4184.85
2023-11-13T19:18:20.913Z,3009.57
2023-11-13T19:20:48.637Z,3685.78
2023-11-13T19:23:17.636Z,4945.96
2023-11-13T19:25:45.397Z,3647.89
2023-11-13T19:28:13.105Z,3432.70
2023-11-13T19:30:41.193Z,3397.91
2023-11-13T19:33:08.921Z,4523.70
2023-11-13T19:35:36.883Z,4556.55
2023-11-13T19:38:04.577Z,4930.02
2023-11-13T19:40:33.662Z,5723.79
2023-11-13T19:43:01.888Z,6779.18
2023-11-13T19:45:30.461Z,6651.61
2023-11-13T19:47:58.263Z,5348.95
2023-11-13T19:50:26.001Z,4448.00
2023-11-13T19:52:53.844Z,4097.65
2023-11-13T19:55:21.727Z,4254.08
2023-11-13T19:57:50.875Z,4299.93
2023-11-13T20:00:19.092Z,3791.52
2023-11-13T20:02:47.294Z,3588.80
2023-11-13T20:05:15.469Z,3309.97
2023-11-13T20:07:43.209Z,2335.16
2023-11-13T20:10:11.098Z,2871.48
2023-11-13T20:12:38.843Z,4819.30
2023-11-13T20:15:09.091Z,5290.08
2023-11-13T20:17:37.230Z,5807.84
2023-11-13T20:20:05.818Z,2103.75
2023-11-13T20:22:33.473Z,2757.83
2023-11-13T20:25:01.309Z,1748.13
2023-11-13T20:27:29.144Z,2312.94
2023-11-13T20:30:03.808Z,3154.81
2023-11-13T20:32:34.890Z,2715.52
2023-11-13T20:35:02.856Z,3721.15
2023-11-13T20:37:30.757Z,4388.06
2023-11-13T20:39:58.491Z,3011.88
2023-11-13T20:42:26.260Z,3404.58
2023-11-13T20:44:53.977Z,2966.51
2023-11-13T20:47:22.021Z,4149.31
2023-11-13T20:49:51.269Z,3577.75
2023-11-13T20:52:19.212Z,4179.95
2023-11-13T20:54:46.951Z,4173.18
2023-11-13T20:57:14.702Z,3588.45
2023-11-13T20:59:42.625Z,2768.60
2023-11-13T21:02:10.429Z,1835.05
2023-11-13T21:04:39.399Z,2950.65
2023-11-13T21:07:08.523Z,3790.69
2023-11-13T21:09:36.262Z,3639.53
2023-11-13T21:12:04.667Z,4866.09
2023-11-13T21:14:32.391Z,4976.49
2023-11-13T21:17:01.285Z,4679.29
2023-11-13T21:19:28.990Z,4293.93
2023-11-13T21:21:56.688Z,4030.14
2023-11-13T21:24:25.886Z,3936.00
2023-11-13T21:26:53.688Z,3514.98
2023-11-13T21:29:23.879Z,4732.16
2023-11-13T21:31:51.580Z,5132.58
2023-11-13T21:34:19.373Z,5879.14
2023-11-13T21:36:47.066Z,5233.85
2023-11-13T21:39:14.831Z,5233.40
2023-11-13T21:41:43.984Z,5383.52
2023-11-13T21:44:11.824Z,5661.68
2023-11-13T21:46:39.575Z,5553.38
2023-11-13T21:49:07.495Z,4558.24
2023-11-13T21:51:35.159Z,4376.56
2023-11-13T21:54:02.958Z,4477.09
2023-11-13T21:56:30.618Z,4774.32
2023-11-13T21:58:59.736Z,4973.46
2023-11-13T22:01:27.510Z,3989.58
2023-11-13T22:03:55.255Z,3272.35
2023-11-13T22:06:22.955Z,3767.58
2023-11-13T22:08:50.705Z,3549.33
2023-11-13T22:11:18.507Z,2470.15
2023-11-13T22:13:46.243Z,4346.89
2023-11-13T22:16:15.288Z,4554.95
2023-11-13T22:18:43.012Z,4655.19
2023-11-13T22:21:10.873Z,5353.50
2023-11-13T22:23:38.561Z,5106.90
2023-11-13T22:26:06.311Z,4058.53
2023-11-13T22:28:34.135Z,4913.68
2023-11-13T22:31:02.040Z,5905.35
2023-11-13T22:33:31.097Z,5015.82
2023-11-13T22:35:58.773Z,4606.43
2023-11-13T22:38:26.495Z,5123.44
2023-11-13T22:40:54.512Z,4089.34
2023-11-13T22:43:22.404Z,3835.21
2023-11-13T22:45:52.234Z,5331.24
2023-11-13T22:48:19.901Z,5568.48
2023-11-13T22:50:49.124Z,5155.72
2023-11-13T22:53:16.963Z,5245.97
2023-11-13T22:55:44.731Z,4536.23
2023-11-13T22:58:12.464Z,5754.71
2023-11-13T23:00:40.141Z,5326.97
2023-11-13T23:03:07.880Z,4571.40
2023-11-13T23:05:35.563Z,5422.29
2023-11-13T23:08:05.721Z,2731.63
2023-11-13T23:10:33.523Z,2672.26
2023-11-13T23:13:01.262Z,3014.94
2023-11-13T23:15:32.157Z,3611.44
2023-11-13T23:17:59.856Z,2921.84
2023-11-13T23:20:27.582Z,2974.34
2023-11-13T23:22:55.293Z,3140.84
2023-11-13T23:25:24.757Z,2881.45
2023-11-13T23:27:52.417Z,3173.58
2023-11-13T23:30:20.156Z,4224.23
2023-11-13T23:32:47.846Z,3651.44
2023-11-13T23:35:15.580Z,5413.29
2023-11-13T23:37:43.344Z,5450.95
2023-11-13T23:40:12.407Z,6052.35
2023-11-13T23:42:41.468Z,7076.48
2023-11-13T23:45:10.005Z,7128.61
2023-11-13T23:47:38.280Z,5728.72
2023-11-13T23:50:07.005Z,4045.92
2023-11-13T23:52:35.214Z,5507.08
2023-11-13T23:55:03.068Z,4200.66
2023-11-13T23:57:30.855Z,3536.02
2023-11-13T23:59:59.910Z,4624.76
